Time;durP1;ratioP1;P1;durP2;ratioP2;P2;SDS_P1;SDS_P2;PMS_P1;PMS_P2;Temp;Humidity;BMP_temperature;BMP_pressure;BME280_temperature;BME280_humidity;BME280_pressure;Samples;Min_cycle;Max_cycle;Signal;HPM_P1;HPM_P2
2021/11/16 00:00:36;;;;;;;30.70;22.30;;;;;;;4.21;100.00;96243.34;5110888;28;24420;-74
2021/11/16 00:03:05;;;;;;;26.65;22.45;;;;;;;4.17;100.00;96242.59;5110721;28;24973;-72
2021/11/16 00:05:31;;;;;;;26.55;22.50;;;;;;;4.18;100.00;96246.84;5110395;28;24424;-72
2021/11/16 00:07:58;;;;;;;29.30;22.33;;;;;;;4.18;100.00;96243.44;5110794;28;24792;-72
2021/11/16 00:10:25;;;;;;;30.52;22.15;;;;;;;4.22;100.00;96255.28;5110920;28;24425;-72
2021/11/16 00:12:52;;;;;;;27.30;21.88;;;;;;;4.16;100.00;96253.75;5110614;28;24420;-72
2021/11/16 00:15:18;;;;;;;29.07;20.80;;;;;;;4.20;100.00;96259.63;5110430;28;24420;-72
2021/11/16 00:17:45;;;;;;;28.80;20.73;;;;;;;4.24;100.00;96258.66;5110552;28;24807;-72
2021/11/16 00:20:14;;;;;;;27.10;20.27;;;;;;;4.18;100.00;96256.25;5110976;28;24414;-72
2021/11/16 00:22:43;;;;;;;24.50;20.95;;;;;;;4.19;100.00;96252.78;5110708;28;24433;-72
2021/11/16 00:25:20;;;;;;;26.25;22.15;;;;;;;4.15;100.00;96253.78;5072814;22;24475;-75
2021/11/16 00:27:48;;;;;;;29.33;22.55;;;;;;;4.40;100.00;96257.28;5050130;28;24486;-74
2021/11/16 00:30:15;;;;;;;27.35;21.70;;;;;;;4.32;100.00;96256.69;5049893;28;24427;-74
2021/11/16 00:32:43;;;;;;;26.42;22.08;;;;;;;4.12;100.00;96262.41;5050012;28;25032;-74
2021/11/16 00:35:10;;;;;;;25.30;21.58;;;;;;;4.03;100.00;96260.94;5049949;28;24415;-75
2021/11/16 00:37:38;;;;;;;28.58;22.08;;;;;;;4.11;100.00;96259.00;5050118;28;24963;-74
2021/11/16 00:40:07;;;;;;;25.33;21.77;;;;;;;4.07;100.00;96269.38;5049982;28;24500;-74
2021/11/16 00:42:34;;;;;;;24.33;20.67;;;;;;;4.10;100.00;96274.44;5049920;28;24427;-74
2021/11/16 00:45:01;;;;;;;30.17;22.50;;;;;;;4.08;100.00;96260.84;5049463;28;24435;-74
2021/11/16 00:47:27;;;;;;;30.30;21.65;;;;;;;4.05;100.00;96277.13;5050027;28;24474;-74
2021/11/16 00:49:54;;;;;;;27.13;20.55;;;;;;;4.06;100.00;96257.47;5050014;28;24427;-75
2021/11/16 00:52:21;;;;;;;27.73;20.98;;;;;;;4.08;100.00;96258.28;5049949;28;24418;-75
2021/11/16 00:54:50;;;;;;;24.75;20.50;;;;;;;4.12;100.00;96264.97;5049528;28;24431;-74
2021/11/16 00:57:17;;;;;;;29.20;20.87;;;;;;;4.22;100.00;96270.66;5049729;28;24419;-75
2021/11/16 00:59:44;;;;;;;26.52;21.52;;;;;;;4.21;100.00;96267.25;5049596;28;24450;-74
2021/11/16 01:02:10;;;;;;;28.77;22.20;;;;;;;4.18;100.00;96266.50;5049798;28;24419;-74
2021/11/16 01:04:37;;;;;;;28.13;22.58;;;;;;;4.10;100.00;96274.44;5049928;28;24430;-74
2021/11/16 01:07:05;;;;;;;25.40;21.58;;;;;;;4.06;100.00;96275.41;5050108;28;25030;-74
2021/11/16 01:09:32;;;;;;;25.85;20.95;;;;;;;3.87;100.00;96269.97;5053363;28;24423;-74
2021/11/16 01:12:00;;;;;;;27.20;20.73;;;;;;;3.90;100.00;96275.00;5053651;28;24414;-75
2021/11/16 01:14:26;;;;;;;28.58;22.85;;;;;;;3.93;100.00;96274.06;5053358;28;24777;-75
2021/11/16 01:16:53;;;;;;;27.85;22.73;;;;;;;3.89;100.00;96270.75;5052910;28;24990;-75
2021/11/16 01:19:20;;;;;;;27.75;21.10;;;;;;;3.82;100.00;96272.66;5053654;28;24423;-75
2021/11/16 01:21:46;;;;;;;26.95;22.33;;;;;;;3.84;100.00;96272.63;5053149;28;24805;-76
2021/11/16 01:24:13;;;;;;;28.50;20.93;;;;;;;3.89;100.00;96265.63;5052978;28;24537;-74
2021/11/16 01:26:43;;;;;;;26.55;20.77;;;;;;;3.94;100.00;96268.06;5052615;28;24438;-74
2021/11/16 01:29:11;;;;;;;23.38;19.67;;;;;;;4.02;100.00;96266.97;5053018;28;24787;-75
2021/11/16 01:31:37;;;;;;;25.13;22.35;;;;;;;4.24;100.00;96266.34;5052989;28;24514;-75
2021/11/16 01:34:06;;;;;;;25.25;22.48;;;;;;;4.26;100.00;96269.69;5052958;28;24505;-74
2021/11/16 01:36:33;;;;;;;31.02;22.30;;;;;;;4.17;100.00;96273.38;5052772;28;24426;-75
2021/11/16 01:39:01;;;;;;;29.55;22.08;;;;;;;4.16;100.00;96276.81;5052723;28;24426;-76
2021/11/16 01:41:29;;;;;;;26.08;21.35;;;;;;;4.19;100.00;96268.19;5052793;28;24804;-75
2021/11/16 01:43:56;;;;;;;25.48;20.50;;;;;;;4.16;100.00;96273.41;5052508;28;24960;-76
2021/11/16 01:46:25;;;;;;;24.90;22.05;;;;;;;4.12;100.00;96270.09;5052522;28;24425;-75
2021/11/16 01:48:54;;;;;;;27.80;22.45;;;;;;;4.04;100.00;96267.78;5052594;28;24860;-74
2021/11/16 01:51:23;;;;;;;26.15;21.20;;;;;;;4.04;100.00;96275.47;5052487;28;24789;-75
2021/11/16 01:53:52;;;;;;;36.00;24.40;;;;;;;3.88;100.00;96269.06;5052106;28;24991;-76
2021/11/16 01:56:19;;;;;;;26.02;21.58;;;;;;;3.95;100.00;96274.88;5051781;28;24439;-76
2021/11/16 01:58:46;;;;;;;31.00;22.77;;;;;;;4.03;100.00;96273.75;5052567;28;24434;-75
2021/11/16 02:01:13;;;;;;;27.60;23.13;;;;;;;3.84;100.00;96264.94;5052269;28;24427;-75
2021/11/16 02:03:40;;;;;;;24.42;21.67;;;;;;;3.88;100.00;96266.50;5052220;28;24435;-74
2021/11/16 02:06:22;;;;;;;27.03;21.93;;;;;;;3.90;100.00;96269.88;5051802;28;24434;-75
2021/11/16 02:08:51;;;;;;;29.90;22.55;;;;;;;3.97;100.00;96263.72;5032224;28;24451;-76
2021/11/16 02:11:18;;;;;;;29.63;22.53;;;;;;;4.05;100.00;96266.03;5032220;28;24430;-75
2021/11/16 02:13:45;;;;;;;25.38;21.20;;;;;;;4.03;100.00;96255.81;5032291;28;24420;-74
2021/11/16 02:16:12;;;;;;;25.15;21.33;;;;;;;4.09;100.00;96250.53;5031800;28;24820;-74
2021/11/16 02:18:41;;;;;;;30.40;22.05;;;;;;;4.07;100.00;96254.00;5031358;28;24419;-75
2021/11/16 02:21:09;;;;;;;28.17;23.20;;;;;;;4.13;100.00;96243.59;5032179;28;24431;-75
2021/11/16 02:23:38;;;;;;;28.83;22.40;;;;;;;4.13;100.00;96234.16;5031984;28;24522;-75
2021/11/16 02:26:04;;;;;;;25.48;21.55;;;;;;;4.43;100.00;96240.97;5031782;28;24427;-75
2021/11/16 02:28:31;;;;;;;28.13;23.58;;;;;;;4.53;100.00;96245.78;5032004;28;24447;-76
2021/11/16 02:30:58;;;;;;;32.47;24.02;;;;;;;4.25;100.00;96235.50;5031763;28;24431;-75
2021/11/16 02:33:24;;;;;;;28.00;23.20;;;;;;;4.15;100.00;96230.69;5031720;28;24427;-75
2021/11/16 02:35:51;;;;;;;29.08;21.90;;;;;;;4.06;100.00;96247.22;5031598;28;24423;-74
2021/11/16 02:38:19;;;;;;;24.67;21.00;;;;;;;4.07;100.00;96236.91;5031963;28;24506;-75
2021/11/16 02:40:46;;;;;;;30.83;23.25;;;;;;;4.03;100.00;96237.03;5048026;28;24435;-76
2021/11/16 02:43:13;;;;;;;27.33;22.38;;;;;;;3.95;100.00;96234.72;5051464;28;24443;-76
2021/11/16 02:45:41;;;;;;;28.55;22.25;;;;;;;3.94;100.00;96233.03;5051262;28;24412;-74
2021/11/16 02:48:13;;;;;;;26.15;21.95;;;;;;;3.96;100.00;96236.38;5051222;28;24454;-74
2021/11/16 02:50:41;;;;;;;27.00;22.13;;;;;;;3.94;100.00;96237.31;5051662;28;24419;-74
2021/11/16 02:53:08;;;;;;;37.33;23.00;;;;;;;3.83;100.00;96235.06;5051418;28;24427;-74
2021/11/16 02:55:36;;;;;;;27.42;24.05;;;;;;;3.76;100.00;96238.69;5051141;28;24419;-75
2021/11/16 02:58:03;;;;;;;29.15;23.20;;;;;;;3.74;100.00;96231.03;5051144;28;24493;-75
2021/11/16 03:00:30;;;;;;;28.13;23.38;;;;;;;3.80;100.00;96233.44;5050928;28;24430;-75
2021/11/16 03:02:58;;;;;;;30.25;24.10;;;;;;;3.83;100.00;96232.50;5051364;28;25006;-75
2021/11/16 03:05:30;;;;;;;32.05;25.60;;;;;;;3.71;100.00;96235.41;5050934;28;24419;-74
2021/11/16 03:07:57;;;;;;;29.40;23.52;;;;;;;3.55;100.00;96227.31;5050946;28;25047;-74
2021/11/16 03:10:25;;;;;;;32.40;24.23;;;;;;;3.51;100.00;96224.00;5050972;28;24450;-75
2021/11/16 03:12:54;;;;;;;31.55;24.30;;;;;;;3.53;100.00;96229.09;5050753;28;24513;-75
2021/11/16 03:15:21;;;;;;;33.97;24.73;;;;;;;3.51;100.00;96229.13;5050778;28;24542;-75
2021/11/16 03:17:48;;;;;;;28.88;24.00;;;;;;;3.57;100.00;96223.00;5050967;28;24469;-75
2021/11/16 03:20:17;;;;;;;29.23;23.98;;;;;;;3.60;100.00;96215.25;5051128;28;24423;-75
2021/11/16 03:22:46;;;;;;;30.75;22.90;;;;;;;3.63;100.00;96220.25;5050815;28;24422;-75
2021/11/16 03:25:14;;;;;;;31.48;23.05;;;;;;;3.64;100.00;96221.94;5050364;28;24462;-75
2021/11/16 03:27:43;;;;;;;32.20;23.33;;;;;;;3.68;100.00;96223.53;5050678;28;24455;-75
2021/11/16 03:30:12;;;;;;;33.53;23.60;;;;;;;3.75;100.00;96217.34;5050766;28;24432;-75
2021/11/16 03:32:38;;;;;;;37.60;24.90;;;;;;;3.78;100.00;96211.28;5050470;28;25009;-75
2021/11/16 03:35:08;;;;;;;33.92;24.50;;;;;;;3.77;100.00;96209.63;5050291;28;24430;-75
2021/11/16 03:37:42;;;;;;;33.00;23.75;;;;;;;3.74;100.00;96207.97;5050550;28;24419;-75
2021/11/16 03:40:10;;;;;;;32.40;24.80;;;;;;;3.71;100.00;96210.66;5050372;28;24469;-75
2021/11/16 03:42:40;;;;;;;27.35;23.45;;;;;;;3.79;100.00;96205.31;5050440;28;24426;-76
2021/11/16 03:45:07;;;;;;;29.95;24.95;;;;;;;3.67;100.00;96203.06;5050169;28;24438;-75
2021/11/16 03:47:35;;;;;;;32.38;23.75;;;;;;;3.75;100.00;96191.75;5050313;28;24474;-75
2021/11/16 03:50:02;;;;;;;35.47;23.75;;;;;;;3.68;100.00;96204.78;5050527;28;24419;-75
2021/11/16 03:52:34;;;;;;;30.17;24.42;;;;;;;3.82;100.00;96200.06;5050236;28;24415;-74
2021/11/16 03:55:01;;;;;;;30.37;23.30;;;;;;;3.80;100.00;96199.28;5050152;28;24534;-74
2021/11/16 03:57:29;;;;;;;38.03;25.47;;;;;;;3.61;100.00;96198.97;5050454;28;24525;-76
2021/11/16 03:59:55;;;;;;;35.55;26.10;;;;;;;3.63;100.00;96190.38;5050446;28;24546;-76
2021/11/16 04:02:22;;;;;;;36.95;25.17;;;;;;;3.68;100.00;96194.53;5050444;28;24824;-76
2021/11/16 04:04:54;;;;;;;30.98;24.85;;;;;;;3.67;100.00;96200.50;5049823;28;24426;-74
2021/11/16 04:07:21;;;;;;;34.40;24.85;;;;;;;3.66;100.00;96203.97;5050404;28;24439;-75
2021/11/16 04:09:48;;;;;;;31.50;24.60;;;;;;;3.60;100.00;96207.56;5050314;28;24430;-75
2021/11/16 04:12:14;;;;;;;33.50;26.15;;;;;;;3.60;100.00;96208.38;5050110;28;24948;-75
2021/11/16 04:14:41;;;;;;;37.80;24.67;;;;;;;3.81;100.00;96201.78;5049761;28;24424;-74
2021/11/16 04:17:08;;;;;;;31.98;23.25;;;;;;;3.80;100.00;96207.81;5049981;28;25026;-75
2021/11/16 04:19:34;;;;;;;26.83;22.65;;;;;;;3.75;100.00;96201.16;5050018;28;24412;-75
2021/11/16 04:22:02;;;;;;;29.80;23.10;;;;;;;3.76;100.00;96195.13;5050361;28;24785;-75
2021/11/16 04:24:29;;;;;;;25.75;22.20;;;;;;;3.77;100.00;96194.25;5049955;28;24424;-75
2021/11/16 04:26:55;;;;;;;27.95;23.92;;;;;;;3.90;100.00;96189.63;5050186;28;24419;-74
2021/11/16 04:29:22;;;;;;;32.33;23.27;;;;;;;3.81;100.00;96185.59;5049916;28;24439;-74
2021/11/16 04:31:49;;;;;;;30.85;22.60;;;;;;;3.78;100.00;96190.78;5049902;28;24956;-75
2021/11/16 04:34:15;;;;;;;38.20;23.60;;;;;;;3.82;100.00;96195.81;5049689;28;24438;-76
2021/11/16 04:36:42;;;;;;;28.67;22.98;;;;;;;3.88;100.00;96198.16;5049979;28;24422;-76
2021/11/16 04:39:10;;;;;;;30.10;23.52;;;;;;;3.81;100.00;96206.06;5050110;28;24785;-76
2021/11/16 04:41:38;;;;;;;33.33;23.48;;;;;;;3.55;100.00;96204.25;5049993;28;24418;-76
2021/11/16 04:44:07;;;;;;;28.92;22.05;;;;;;;3.68;100.00;96205.59;5053524;28;25067;-75
2021/11/16 04:46:34;;;;;;;30.13;22.50;;;;;;;3.75;100.00;96203.72;5053359;28;24421;-75
2021/11/16 04:49:04;;;;;;;27.92;20.20;;;;;;;3.90;100.00;96198.13;5053847;28;24451;-75
2021/11/16 04:59:51;;;;;;;24.42;20.30;;;;;;;3.55;100.00;96192.28;5053831;28;24478;-75
2021/11/16 05:02:35;;;;;;;25.30;19.63;;;;;;;3.51;100.00;96184.75;5053474;28;24415;-75
2021/11/16 05:05:02;;;;;;;25.52;18.88;;;;;;;3.50;100.00;96193.31;5053037;28;24469;-76
2021/11/16 05:07:31;;;;;;;23.63;19.25;;;;;;;3.48;100.00;96197.63;5053252;28;24425;-76
2021/11/16 05:10:00;;;;;;;22.85;18.92;;;;;;;3.53;100.00;96204.31;5053594;28;24477;-76
2021/11/16 05:12:30;;;;;;;24.95;19.48;;;;;;;3.52;100.00;96201.78;5053338;28;24474;-75
2021/11/16 05:14:57;;;;;;;23.20;18.40;;;;;;;3.64;100.00;96204.03;5052951;28;24976;-74
2021/11/16 05:17:24;;;;;;;24.30;17.67;;;;;;;3.67;100.00;96205.63;5053186;28;24424;-74
2021/11/16 05:19:50;;;;;;;30.48;19.63;;;;;;;3.72;100.00;96217.44;5053112;28;24419;-74
2021/11/16 05:22:17;;;;;;;25.77;19.13;;;;;;;3.76;100.00;96215.63;5053453;28;24618;-75
2021/11/16 05:24:43;;;;;;;24.00;18.90;;;;;;;3.78;100.00;96213.84;5052786;28;24976;-74
2021/11/16 05:27:12;;;;;;;28.65;19.27;;;;;;;3.78;100.00;96221.53;5053242;28;24423;-75
2021/11/16 05:29:38;;;;;;;26.48;20.55;;;;;;;3.78;100.00;96211.28;5052940;28;24516;-75
2021/11/16 05:32:06;;;;;;;30.17;21.67;;;;;;;3.84;100.00;96216.25;5052879;28;24812;-75
2021/11/16 05:34:32;;;;;;;28.57;22.53;;;;;;;3.75;100.00;96209.69;5052435;28;24438;-75
2021/11/16 05:36:59;;;;;;;29.42;23.00;;;;;;;3.72;100.00;96211.47;5052972;28;24426;-75
2021/11/16 05:39:25;;;;;;;29.00;22.30;;;;;;;3.77;100.00;96207.88;5053037;28;24769;-74
2021/11/16 05:41:52;;;;;;;23.60;20.20;;;;;;;3.78;100.00;96216.41;5052661;28;24427;-75
2021/11/16 05:44:20;;;;;;;25.27;18.15;;;;;;;3.79;100.00;96213.81;5052650;28;24983;-76
2021/11/16 05:46:46;;;;;;;27.08;19.52;;;;;;;3.74;100.00;96223.34;5052319;28;24423;-75
2021/11/16 05:49:13;;;;;;;23.92;18.45;;;;;;;3.77;100.00;96222.44;5052199;28;24451;-76
2021/11/16 05:51:39;;;;;;;22.75;17.90;;;;;;;3.81;100.00;96218.88;5046560;28;24427;-75
2021/11/16 05:54:07;;;;;;;19.67;16.17;;;;;;;3.81;100.00;96221.44;5051041;28;24493;-76
2021/11/16 05:56:37;;;;;;;26.08;16.90;;;;;;;3.76;100.00;96218.19;5052226;28;24426;-76
2021/11/16 05:59:04;;;;;;;18.10;15.25;;;;;;;3.81;100.00;96226.56;5052962;28;24423;-77
2021/11/16 06:01:34;;;;;;;19.90;14.93;;;;;;;3.75;100.00;96231.91;5052855;28;24414;-76
2021/11/16 06:04:01;;;;;;;21.52;15.43;;;;;;;3.76;100.00;96223.31;5052408;28;24975;-77
2021/11/16 06:06:29;;;;;;;20.42;14.55;;;;;;;3.80;100.00;96230.03;5053094;28;24430;-76
2021/11/16 06:08:57;;;;;;;18.58;15.52;;;;;;;3.69;100.00;96232.06;5053202;28;24995;-75
2021/11/16 06:11:25;;;;;;;19.30;15.77;;;;;;;3.68;100.00;96231.22;5053003;28;24518;-75
2021/11/16 06:13:53;;;;;;;23.13;17.25;;;;;;;3.63;100.00;96239.03;5051572;28;24948;-76
2021/11/16 06:16:20;;;;;;;20.40;15.68;;;;;;;3.58;100.00;96235.75;5052168;28;24458;-77
2021/11/16 06:18:51;;;;;;;24.25;17.45;;;;;;;3.52;100.00;96230.81;5054772;28;24419;-77
2021/11/16 06:21:18;;;;;;;19.08;14.90;;;;;;;3.48;100.00;96238.59;5054732;28;24530;-77
2021/11/16 06:23:44;;;;;;;21.07;14.90;;;;;;;3.46;100.00;96237.81;5067256;22;24412;-72
2021/11/16 06:26:11;;;;;;;19.88;15.88;;;;;;;3.49;100.00;96236.03;5051611;28;24419;-72
2021/11/16 06:28:38;;;;;;;20.63;17.20;;;;;;;3.53;100.00;96235.06;5050704;28;24439;-72
2021/11/16 06:31:04;;;;;;;26.08;16.92;;;;;;;3.51;100.00;96239.38;5051542;28;24968;-72
2021/11/16 06:33:31;;;;;;;20.13;17.00;;;;;;;3.48;100.00;96230.94;5051624;28;24792;-72
2021/11/16 06:35:59;;;;;;;24.42;16.58;;;;;;;3.47;100.00;96236.94;5051088;28;24974;-73
2021/11/16 06:38:25;;;;;;;22.55;15.70;;;;;;;3.55;100.00;96233.28;5051467;28;24415;-73
2021/11/16 06:40:52;;;;;;;21.73;15.77;;;;;;;3.59;100.00;96241.72;5051292;28;24446;-73
2021/11/16 06:43:22;;;;;;;21.67;15.77;;;;;;;3.53;100.00;96244.47;5051126;28;24788;-72
2021/11/16 06:45:53;;;;;;;17.35;14.75;;;;;;;3.55;100.00;96246.06;5050978;28;24936;-72
2021/11/16 06:48:20;;;;;;;21.03;14.70;;;;;;;3.54;100.00;96246.13;5051315;28;24446;-72
2021/11/16 06:50:47;;;;;;;20.67;16.48;;;;;;;3.51;100.00;96244.47;5050945;28;24434;-72
2021/11/16 06:53:23;;;;;;;22.50;15.18;;;;;;;3.44;100.00;96247.25;5050483;28;24438;-73
2021/11/16 06:55:50;;;;;;;20.17;15.73;;;;;;;3.31;100.00;96251.88;5050114;28;24777;-74
2021/11/16 06:58:16;;;;;;;20.77;14.57;;;;;;;3.22;100.00;96252.09;5050816;28;24430;-74
2021/11/16 07:00:43;;;;;;;19.17;14.63;;;;;;;3.20;100.00;96253.88;5051309;28;24419;-74
2021/11/16 07:03:10;;;;;;;26.20;19.17;;;;;;;3.23;100.00;96257.19;5050738;28;25061;-74
2021/11/16 07:05:36;;;;;;;19.60;16.13;;;;;;;3.25;100.00;96257.97;5050440;28;24526;-74
2021/11/16 07:08:03;;;;;;;16.70;12.93;;;;;;;3.27;100.00;96256.25;5051151;28;24454;-74
2021/11/16 07:10:32;;;;;;;15.05;12.48;;;;;;;3.40;100.00;96255.00;5050874;28;25102;-74
2021/11/16 07:13:06;;;;;;;16.58;12.43;;;;;;;3.39;100.00;96245.66;5051235;28;24453;-74
2021/11/16 07:15:34;;;;;;;14.98;11.00;;;;;;;3.40;100.00;96259.31;5050827;28;24811;-74
2021/11/16 07:18:05;;;;;;;16.97;11.27;;;;;;;3.30;100.00;96255.28;5051268;28;24411;-74
2021/11/16 07:20:32;;;;;;;12.05;10.70;;;;;;;3.39;100.00;96258.47;5050457;28;24431;-74
2021/11/16 07:22:59;;;;;;;14.20;10.77;;;;;;;3.43;100.00;96266.91;5050590;28;24785;-74
2021/11/16 07:25:27;;;;;;;11.70;9.88;;;;;;;3.45;100.00;96271.97;5050376;28;24423;-74
2021/11/16 07:27:56;;;;;;;11.90;9.70;;;;;;;3.47;100.00;96271.06;5050716;28;25006;-74
2021/11/16 07:30:25;;;;;;;12.85;10.55;;;;;;;3.40;100.00;96272.94;5050457;28;24559;-74
2021/11/16 07:32:54;;;;;;;9.68;8.63;;;;;;;3.34;100.00;96270.56;5050632;28;24411;-74
2021/11/16 07:35:25;;;;;;;12.68;8.80;;;;;;;3.44;100.00;96276.25;5050157;28;24434;-74
2021/11/16 07:37:55;;;;;;;13.27;9.63;;;;;;;3.32;100.00;96274.03;5050739;28;24534;-75
2021/11/16 07:40:21;;;;;;;7.72;6.82;;;;;;;3.18;100.00;96264.13;5050598;28;24780;-75
2021/11/16 07:42:51;;;;;;;9.55;7.20;;;;;;;3.15;100.00;96282.13;5050387;28;24952;-75
2021/11/16 07:45:22;;;;;;;8.10;6.85;;;;;;;3.18;100.00;96279.50;5050204;28;24419;-74
2021/11/16 07:47:51;;;;;;;10.43;6.77;;;;;;;3.19;100.00;96276.09;5050435;28;24516;-74
2021/11/16 07:50:35;;;;;;;6.15;5.55;;;;;;;3.29;100.00;96281.78;5049942;28;24999;-74
2021/11/16 07:53:19;;;;;;;7.90;6.43;;;;;;;3.43;100.00;96278.88;5050251;28;24971;-74
2021/11/16 07:55:56;;;;;;;6.63;5.70;;;;;;;3.51;100.00;96279.50;5049850;28;24987;-74
2021/11/16 07:58:25;;;;;;;8.30;6.03;;;;;;;3.44;100.00;96291.63;5050995;28;24403;-74
2021/11/16 08:00:53;;;;;;;8.20;6.20;;;;;;;3.48;100.00;96287.25;5050662;28;24419;-75
2021/11/16 08:03:25;;;;;;;7.93;6.70;;;;;;;3.56;100.00;96291.31;5050404;28;24514;-74
2021/11/16 08:05:59;;;;;;;8.02;6.65;;;;;;;3.56;100.00;96275.94;5050164;28;24454;-74
2021/11/16 08:08:40;;;;;;;8.65;6.57;;;;;;;3.48;100.00;96280.41;5050325;28;24473;-75
2021/11/16 08:11:16;;;;;;;8.70;7.60;;;;;;;3.52;100.00;96276.91;5050243;28;24516;-74
2021/11/16 08:13:56;;;;;;;7.90;7.18;;;;;;;3.49;100.00;96283.84;5050386;28;25006;-74
2021/11/16 08:16:24;;;;;;;8.95;8.05;;;;;;;3.50;100.00;96283.78;5050075;28;24434;-74
2021/11/16 08:18:55;;;;;;;10.15;8.40;;;;;;;3.47;100.00;96280.47;5053858;28;24446;-75
2021/11/16 08:21:22;;;;;;;9.77;8.32;;;;;;;3.49;100.00;96277.00;5053812;28;24432;-74
2021/11/16 08:23:55;;;;;;;8.35;7.43;;;;;;;3.51;100.00;96279.50;5054274;28;24519;-74
2021/11/16 08:26:24;;;;;;;10.50;8.25;;;;;;;3.56;100.00;96268.28;5053739;28;24970;-74
2021/11/16 08:28:52;;;;;;;16.25;9.15;;;;;;;3.43;100.00;96277.16;5054021;28;24411;-74
2021/11/16 08:31:19;;;;;;;11.80;8.80;;;;;;;3.49;100.00;96279.56;5054046;28;24481;-74
2021/11/16 08:33:49;;;;;;;17.92;8.57;;;;;;;3.50;100.00;96277.84;5053939;28;24419;-74
2021/11/16 08:36:16;;;;;;;13.10;8.68;;;;;;;3.56;100.00;96272.53;5053792;28;24431;-74
2021/11/16 08:38:43;;;;;;;13.32;8.80;;;;;;;3.54;100.00;96287.94;5053953;28;24477;-74
2021/11/16 08:41:28;;;;;;;13.85;8.38;;;;;;;3.50;100.00;96286.34;5053914;28;24419;-74
2021/11/16 08:44:07;;;;;;;11.30;7.77;;;;;;;3.62;100.00;96286.00;5054411;28;24530;-74
2021/11/16 08:46:34;;;;;;;15.77;7.90;;;;;;;3.70;100.00;96285.78;5053866;28;24476;-72
2021/11/16 08:49:02;;;;;;;12.55;7.68;;;;;;;3.73;100.00;96282.31;5053839;28;24548;-74
2021/11/16 08:51:39;;;;;;;8.07;6.70;;;;;;;3.67;100.00;96280.78;5053576;28;24434;-75
2021/11/16 08:54:06;;;;;;;10.40;6.35;;;;;;;3.74;100.00;96284.00;5053976;28;24426;-75
2021/11/16 08:56:38;;;;;;;7.95;5.95;;;;;;;3.73;100.00;96274.63;5053397;28;24422;-75
2021/11/16 08:59:11;;;;;;;9.35;6.45;;;;;;;3.66;100.00;96270.56;5053643;28;24426;-74
2021/11/16 09:01:38;;;;;;;8.90;6.87;;;;;;;3.74;100.00;96266.91;5053912;28;24496;-74
2021/11/16 09:04:08;;;;;;;9.70;6.43;;;;;;;3.62;100.00;96272.38;5053708;28;24496;-74
2021/11/16 09:06:40;;;;;;;11.77;6.97;;;;;;;3.75;100.00;96280.56;5053067;28;24932;-74
2021/11/16 09:09:11;;;;;;;8.13;5.80;;;;;;;3.71;100.00;96276.38;5053391;28;24455;-75
2021/11/16 09:11:38;;;;;;;8.57;5.93;;;;;;;3.74;100.00;96268.63;5053368;28;24792;-74
2021/11/16 09:14:12;;;;;;;7.05;5.75;;;;;;;3.71;100.00;96268.69;5048056;28;24879;-75
2021/11/16 09:16:40;;;;;;;10.80;6.20;;;;;;;3.71;100.00;96266.13;5045588;28;25039;-74
2021/11/16 09:19:22;;;;;;;7.10;6.07;;;;;;;3.72;100.00;96263.56;5045536;28;24994;-77
2021/11/16 09:21:49;;;;;;;8.55;7.03;;;;;;;3.70;100.00;96269.59;5042710;28;25018;-74
2021/11/16 09:24:17;;;;;;;11.38;9.15;;;;;;;3.70;100.00;96267.88;5053081;28;24427;-74
2021/11/16 09:26:54;;;;;;;11.90;6.47;;;;;;;3.78;100.00;96262.53;5053053;28;24488;-77
2021/11/16 09:29:23;;;;;;;8.63;5.97;;;;;;;3.84;100.00;96268.31;5052745;28;24542;-74
2021/11/16 09:31:53;;;;;;;9.10;6.50;;;;;;;3.74;100.00;96277.16;5052930;28;24419;-76
2021/11/16 09:34:27;;;;;;;8.57;6.70;;;;;;;3.73;100.00;96274.63;5052697;28;24439;-74
2021/11/16 09:36:56;;;;;;;7.82;5.95;;;;;;;3.79;100.00;96275.31;5052965;28;24419;-75
2021/11/16 09:39:26;;;;;;;8.45;5.85;;;;;;;3.86;100.00;96278.53;5052983;28;24465;-75
2021/11/16 09:41:56;;;;;;;6.18;5.55;;;;;;;3.88;100.00;96280.16;5052921;28;24423;-75
2021/11/16 09:44:24;;;;;;;7.85;5.75;;;;;;;3.91;100.00;96279.25;5052648;28;24434;-76
2021/11/16 09:46:55;;;;;;;9.57;6.38;;;;;;;3.92;100.00;96274.94;5052143;28;24438;-74
2021/11/16 09:49:34;;;;;;;8.33;6.13;;;;;;;3.84;100.00;96272.63;5052846;28;24847;-74
2021/11/16 09:52:05;;;;;;;7.63;5.82;;;;;;;3.82;100.00;96264.97;5052035;28;24453;-76
2021/11/16 09:54:32;;;;;;;6.63;5.30;;;;;;;3.93;100.00;96269.81;5052142;28;24438;-74
2021/11/16 09:57:05;;;;;;;8.30;6.25;;;;;;;3.93;100.00;96272.38;5052450;28;24781;-74
2021/11/16 09:59:32;;;;;;;6.75;5.63;;;;;;;4.00;100.00;96275.56;5052820;28;24477;-74
2021/11/16 10:01:59;;;;;;;8.02;6.53;;;;;;;4.04;100.00;96272.03;5052483;28;24423;-75
2021/11/16 10:04:30;;;;;;;9.88;6.13;;;;;;;4.08;100.00;96264.22;5052136;28;24458;-74
2021/11/16 10:06:58;;;;;;;14.63;11.70;;;;;;;4.11;100.00;96261.56;5052348;28;24515;-74
2021/11/16 10:09:25;;;;;;;11.35;8.13;;;;;;;4.13;100.00;96271.78;5052148;28;24419;-74
2021/11/16 10:11:53;;;;;;;9.45;6.15;;;;;;;4.15;100.00;96258.91;5052186;28;24434;-74
2021/11/16 10:14:23;;;;;;;9.55;7.15;;;;;;;4.09;100.00;96257.38;5052215;28;24434;-74
2021/11/16 10:16:51;;;;;;;8.57;7.53;;;;;;;4.10;100.00;96252.19;5051737;28;24951;-75
2021/11/16 10:19:18;;;;;;;12.23;10.57;;;;;;;4.16;100.00;96256.31;5052021;28;24504;-74
2021/11/16 10:21:44;;;;;;;10.48;7.60;;;;;;;4.10;100.00;96261.59;5051713;28;25009;-75
2021/11/16 10:24:29;;;;;;;10.27;7.80;;;;;;;3.95;100.00;96254.38;5051642;28;24439;-75
2021/11/16 10:26:57;;;;;;;10.35;7.60;;;;;;;3.99;100.00;96255.97;5052015;28;24459;-75
2021/11/16 10:29:24;;;;;;;12.35;10.20;;;;;;;3.99;100.00;96259.34;5052123;28;24423;-74
2021/11/16 10:31:50;;;;;;;11.15;8.63;;;;;;;4.09;100.00;96265.06;5051921;28;24422;-74
2021/11/16 10:34:18;;;;;;;9.13;7.23;;;;;;;4.07;100.00;96254.00;5051647;28;24424;-75
2021/11/16 10:36:44;;;;;;;11.60;7.43;;;;;;;4.03;100.00;96252.41;5051303;28;24411;-74
2021/11/16 10:39:11;;;;;;;9.13;7.40;;;;;;;3.96;100.00;96250.91;5051566;28;24968;-74
2021/11/16 10:41:41;;;;;;;11.25;7.88;;;;;;;3.91;100.00;96245.09;5051050;28;24415;-74
2021/11/16 10:44:09;;;;;;;12.25;8.38;;;;;;;3.88;100.00;96246.00;5051642;28;24428;-74
2021/11/16 10:46:39;;;;;;;8.23;6.43;;;;;;;3.96;100.00;96243.22;5051315;28;24423;-74
2021/11/16 10:49:09;;;;;;;8.95;7.57;;;;;;;3.97;100.00;96243.19;5051565;28;24432;-74
2021/11/16 10:51:37;;;;;;;9.55;8.05;;;;;;;4.03;100.00;96232.75;5051060;28;24984;-74
2021/11/16 10:54:06;;;;;;;11.18;7.35;;;;;;;3.94;100.00;96235.59;5051290;28;24423;-74
2021/11/16 10:56:34;;;;;;;11.55;8.05;;;;;;;3.94;100.00;96234.75;5051453;28;24423;-74
2021/11/16 10:59:06;;;;;;;9.93;6.95;;;;;;;3.95;100.00;96237.25;5051302;28;24979;-74
2021/11/16 11:01:33;;;;;;;8.93;7.10;;;;;;;4.02;100.00;96240.50;5051150;28;24434;-72
2021/11/16 11:03:59;;;;;;;10.13;7.40;;;;;;;4.07;100.00;96239.47;5051000;28;24419;-74
2021/11/16 11:06:28;;;;;;;7.68;6.88;;;;;;;4.02;100.00;96228.53;5050925;28;24427;-74
2021/11/16 11:08:57;;;;;;;9.20;7.35;;;;;;;3.98;100.00;96226.09;5051425;28;24423;-74
2021/11/16 11:11:26;;;;;;;7.32;6.63;;;;;;;3.92;100.00;96221.97;5050965;28;24443;-74
2021/11/16 11:13:55;;;;;;;8.43;7.07;;;;;;;3.96;100.00;96227.84;5050915;28;24424;-74
2021/11/16 11:16:24;;;;;;;7.78;6.72;;;;;;;4.09;100.00;96227.44;5050479;28;24446;-74
2021/11/16 11:18:52;;;;;;;7.80;7.00;;;;;;;4.28;100.00;96224.34;5050990;28;24781;-74
2021/11/16 11:21:29;;;;;;;8.35;7.03;;;;;;;4.25;100.00;96226.97;5050689;28;24427;-74
2021/11/16 11:23:59;;;;;;;9.48;6.35;;;;;;;4.19;100.00;96225.47;5050475;28;25027;-74
2021/11/16 11:26:38;;;;;;;7.07;6.38;;;;;;;4.09;100.00;96236.88;5050496;28;24846;-74
2021/11/16 11:29:17;;;;;;;7.28;6.57;;;;;;;4.19;100.00;96233.16;5050222;28;24857;-74
2021/11/16 11:31:48;;;;;;;8.25;6.50;;;;;;;4.16;100.00;96232.41;5050441;28;24443;-74
2021/11/16 11:34:14;;;;;;;6.63;5.95;;;;;;;4.20;100.00;96234.81;5050801;28;24520;-74
2021/11/16 11:36:41;;;;;;;9.00;6.25;;;;;;;4.19;100.00;96233.16;5050344;28;24438;-74